.
WxDataArchive / Data Records for 2011-08-18
2011-08-17 August 2011 2011-08-19

Data Records for Thursday, 18 August 2011

Time	Temp	Chill	HIndex	Humid	Dewpt	 Wind 	HiWind	WindDir	Rain 	Barom 
-----	----	-----	------	-----	-----	------	------	-------	-----	----- 
00:00	68.8	68.8	68.8	76	60.9	0	0	---	0.00	29.991 
00:05	68.6	68.6	68.6	77	61.1	0	0	---	0.00	29.991 
00:10	68.4	68.4	68.4	77	60.9	0	0	---	0.00	29.991 
00:15	68.3	68.3	68.3	78	61.2	0	0	---	0.00	29.993 
00:20	68.3	68.3	68.3	78	61.2	0	0	---	0.00	29.993 
00:25	68.1	68.1	68.1	79	61.3	0	0	---	0.00	29.993 
00:30	67.9	67.9	67.9	79	61.1	0	0	---	0.00	29.994 
00:35	67.8	67.8	67.8	79	61.0	0	0	---	0.00	29.994 
00:40	67.8	67.8	67.8	80	61.4	0	0	---	0.00	29.994 
00:45	67.6	67.6	67.6	80	61.2	0	0	---	0.00	29.997 
00:50	67.6	67.6	67.6	81	61.6	0	0	---	0.00	29.997 
00:55	67.4	67.4	67.4	81	61.4	0	0	---	0.00	29.997 
01:00	67.1	67.1	67.1	81	61.1	0	0	---	0.00	29.999 
01:05	67.1	67.1	67.1	82	61.4	0	0	---	0.00	29.999 
01:10	66.9	66.9	66.9	82	61.2	0	0	---	0.00	29.999 
01:15	66.8	66.8	66.8	82	61.1	0	0	---	0.00	29.996 
01:20	66.6	66.6	66.6	83	61.3	0	0	---	0.00	29.996 
01:25	66.6	66.6	66.6	83	61.3	0	0	---	0.00	29.996 
01:30	66.4	66.4	66.4	84	61.4	0	0	---	0.00	29.997 
01:35	66.3	66.3	66.3	84	61.3	0	0	---	0.00	29.997 
01:40	66.3	66.3	66.3	84	61.3	0	0	---	0.00	29.997 
01:45	66.1	66.1	66.1	84	61.1	0	0	---	0.00	29.997 
01:50	66.0	66.0	66.0	85	61.4	0	0	---	0.00	29.997 
01:55	66.0	66.0	66.0	85	61.4	0	0	---	0.00	29.997 
02:00	66.0	66.0	66.0	85	61.4	0	0	---	0.00	29.996 
02:05	65.8	65.8	65.8	86	61.5	0	0	---	0.00	29.996 
02:10	65.8	65.8	65.8	86	61.5	0	0	---	0.00	29.996 
02:15	65.8	65.8	65.8	86	61.5	0	0	---	0.00	29.994 
02:20	65.6	65.6	65.6	86	61.3	0	0	---	0.00	29.994 
02:25	65.6	65.6	65.6	86	61.3	0	0	---	0.00	29.994 
02:30	65.5	65.5	65.5	86	61.2	0	0	---	0.00	29.993 
02:35	65.5	65.5	65.5	87	61.5	0	0	---	0.00	29.993 
02:40	65.3	65.3	65.3	87	61.3	0	0	---	0.00	29.993 
02:45	65.3	65.3	65.3	87	61.3	0	0	---	0.00	29.992 
02:50	65.3	65.3	65.3	87	61.3	0	0	---	0.00	29.992 
02:55	65.2	65.2	65.2	88	61.6	0	0	---	0.00	29.992 
03:00	65.2	65.2	65.2	88	61.6	0	0	---	0.00	29.990 
03:05	65.0	65.0	65.0	88	61.4	0	0	---	0.00	29.990 
03:10	65.0	65.0	65.0	88	61.4	0	0	---	0.00	29.990 
03:15	65.0	65.0	65.0	88	61.4	0	0	---	0.00	29.987 
03:20	65.0	65.0	65.0	88	61.4	0	0	---	0.00	29.987 
03:25	64.8	64.8	64.8	88	61.2	0	0	---	0.00	29.987 
03:30	64.8	64.8	64.8	88	61.2	0	0	---	0.00	29.990 
03:35	64.8	64.8	64.8	88	61.2	0	0	---	0.00	29.990 
03:40	64.8	64.8	64.8	89	61.5	0	0	---	0.00	29.990 
03:45	64.7	64.7	64.7	89	61.4	0	0	---	0.00	29.991 
03:50	64.7	64.7	64.7	89	61.4	0	0	---	0.00	29.991 
03:55	64.5	64.5	64.5	89	61.2	0	0	---	0.00	29.991 
04:00	64.5	64.5	64.5	89	61.2	0	0	---	0.00	29.989 
04:05	64.5	64.5	64.5	89	61.2	0	0	---	0.00	29.989 
04:10	64.7	64.7	64.7	89	61.4	0	0	---	0.00	29.989 
04:15	64.7	64.7	64.7	90	61.7	0	0	---	0.00	29.989 
04:20	64.8	64.8	64.8	90	61.8	0	0	---	0.00	29.989 
04:25	64.8	64.8	64.8	90	61.8	0	0	---	0.00	29.989 
04:30	64.8	64.8	64.8	90	61.8	0	0	---	0.00	29.989 
04:35	64.8	64.8	64.8	90	61.8	0	0	---	0.00	29.989 
04:40	64.8	64.8	64.8	90	61.8	0	0	---	0.00	29.989 
04:45	64.8	64.8	64.8	90	61.8	0	0	---	0.00	29.988 
04:50	64.8	64.8	64.8	90	61.8	0	0	---	0.00	29.988 
04:55	64.8	64.8	64.8	90	61.8	0	0	---	0.00	29.988 
05:00	64.8	64.8	64.8	90	61.8	0	0	---	0.00	29.985 
05:05	64.8	64.8	64.8	90	61.8	0	0	---	0.00	29.985 
05:10	64.8	64.8	64.8	90	61.8	0	0	---	0.00	29.985 
05:15	64.7	64.7	64.7	90	61.7	0	0	---	0.00	29.981 
05:20	64.7	64.7	64.7	90	61.7	0	0	---	0.00	29.981 
05:25	64.5	64.5	64.5	90	61.5	0	0	---	0.00	29.981 
05:30	64.3	64.3	64.3	90	61.3	0	0	---	0.00	29.981 
05:35	64.3	64.3	64.3	90	61.3	0	0	---	0.00	29.981 
05:40	64.2	64.2	64.2	90	61.2	0	0	---	0.00	29.981 
05:45	64.2	64.2	64.2	91	61.5	0	0	---	0.00	29.981 
05:50	64.0	64.0	64.0	91	61.3	0	0	---	0.00	29.981 
05:55	64.0	64.0	64.0	91	61.3	0	0	---	0.00	29.981 
06:00	63.9	63.9	63.9	91	61.2	0	0	---	0.00	29.982 
06:05	63.9	63.9	63.9	91	61.2	0	0	---	0.00	29.982 
06:10	63.7	63.7	63.7	91	61.0	0	0	---	0.00	29.982 
06:15	63.7	63.7	63.7	91	61.0	0	0	---	0.00	29.981 
06:20	63.5	63.5	63.5	92	61.1	0	0	---	0.00	29.981 
06:25	63.5	63.5	63.5	92	61.1	0	0	---	0.00	29.981 
06:30	63.4	63.4	63.4	92	61.0	0	0	---	0.00	29.983 
06:35	63.4	63.4	63.4	92	61.0	0	0	---	0.00	29.983 
06:40	63.4	63.4	63.4	92	61.0	0	0	---	0.00	29.983 
06:45	63.2	63.2	63.2	92	60.8	0	0	---	0.00	29.986 
06:50	63.2	63.2	63.2	92	60.8	0	0	---	0.00	29.986 
06:55	63.2	63.2	63.2	92	60.8	0	0	---	0.00	29.986 
07:00	63.2	63.2	63.2	92	60.8	0	0	---	0.00	29.988 
07:05	63.1	63.1	63.1	92	60.7	0	0	---	0.00	29.988 
07:10	63.1	63.1	63.1	92	60.7	0	0	---	0.00	29.988 
07:15	63.1	63.1	63.1	92	60.7	0	0	---	0.00	29.993 
07:20	63.2	63.2	63.2	93	61.1	0	0	---	0.00	29.993 
07:25	63.2	63.2	63.2	93	61.1	0	0	---	0.00	29.993 
07:30	63.4	63.4	63.4	93	61.3	0	0	---	0.00	29.995 
07:35	63.5	63.5	63.5	93	61.4	0	0	---	0.00	29.995 
07:40	63.7	63.7	63.7	93	61.6	0	0	---	0.00	29.995 
07:45	63.9	63.9	63.9	93	61.8	0	0	---	0.00	29.994 
07:50	64.2	64.2	64.2	93	62.1	0	0	---	0.00	29.994 
07:55	64.5	64.5	64.5	93	62.4	0	0	---	0.00	29.994 
08:00	65.0	65.0	65.0	93	62.9	0	0	---	0.00	29.996 
08:05	65.5	65.5	65.5	93	63.4	0	0	---	0.00	29.996 
08:10	65.8	65.8	65.8	93	63.7	0	0	---	0.00	29.996 
08:15	66.4	66.4	66.4	92	64.0	0	0	---	0.00	29.995 
08:20	66.8	66.8	66.8	92	64.4	0	0	---	0.00	29.995 
08:25	67.3	67.3	67.3	91	64.6	0	0	---	0.00	29.995 
08:30	67.8	67.8	67.8	90	64.8	0	0	---	0.00	29.995 
08:35	68.1	68.1	68.1	89	64.7	0	0	---	0.00	29.995 
08:40	68.3	68.3	68.3	88	64.6	0	0	---	0.00	29.995 
08:45	68.6	68.6	68.6	87	64.6	0	0	---	0.00	29.997 
08:50	69.1	69.1	69.1	86	64.7	0	0	---	0.00	29.997 
08:55	69.4	69.4	69.4	85	64.7	0	0	---	0.00	29.997 
09:00	69.8	69.8	69.8	84	64.7	0	0	---	0.00	29.996 
09:05	70.3	70.3	70.3	83	64.9	0	0	---	0.00	29.996 
09:10	70.8	70.8	70.8	82	65.0	0	0	---	0.00	29.996 
09:15	71.1	71.1	71.1	80	64.6	0	1	315	0.00	29.999 
09:20	71.8	71.8	71.8	78	64.6	0	1	315	0.00	29.999 
09:25	72.5	72.5	72.5	78	65.2	0	0	---	0.00	29.999 
09:30	73.0	73.0	73.0	75	64.6	0	1	315	0.00	29.996 
09:35	73.5	73.5	73.5	72	63.9	0	1	315	0.00	29.996 
09:40	74.0	74.0	74.0	71	64.0	0	1	315	0.00	29.996 
09:45	74.9	74.9	74.9	69	64.0	0	1	315	0.00	29.991 
09:50	75.6	75.6	77.4	67	63.9	1	2	315	0.00	29.991 
09:55	76.3	76.3	78.1	65	63.6	0	3	315	0.00	29.991 
10:00	77.0	77.0	78.8	63	63.4	1	3	315	0.00	29.984 
10:05	77.6	77.6	79.3	61	63.1	1	3	315	0.00	29.984 
10:10	78.1	78.1	79.7	59	62.6	1	3	315	0.00	29.984 
10:15	78.6	78.6	80.1	58	62.6	1	2	315	0.00	29.980 
10:20	79.2	79.2	80.7	57	62.6	1	3	315	0.00	29.980 
10:25	79.9	79.9	81.3	56	62.8	0	2	315	0.00	29.980 
10:30	80.3	80.3	81.5	54	62.1	1	3	315	0.00	29.980 
10:35	80.9	80.9	82.0	53	62.1	1	2	315	0.00	29.980 
10:40	80.9	80.9	81.8	51	61.0	1	3	315	0.00	29.980 
10:45	81.1	81.1	82.2	53	62.3	1	2	315	0.00	29.979 
10:50	81.4	81.4	82.4	52	62.1	0	2	315	0.00	29.979 
10:55	82.2	82.2	83.0	50	61.7	1	3	315	0.00	29.979 
11:00	82.8	82.8	83.7	50	62.2	0	2	315	0.00	29.977 
11:05	83.6	83.6	84.4	49	62.4	0	3	315	0.00	29.977 
11:10	84.3	84.3	84.9	47	61.8	0	2	112	0.00	29.977 
11:15	84.9	84.9	85.6	47	62.4	1	3	112	0.00	29.974 
11:20	84.9	84.9	85.6	47	62.4	0	3	112	0.00	29.974 
11:25	85.3	85.3	85.9	46	62.1	1	3	112	0.00	29.974 
11:30	85.7	85.7	86.9	48	63.7	0	1	112	0.00	29.972 
11:35	86.3	86.3	87.0	45	62.4	0	2	112	0.00	29.972 
11:40	85.9	85.9	86.4	45	62.1	0	1	112	0.00	29.972 
11:45	86.1	86.1	86.7	45	62.2	1	3	292	0.00	29.967 
11:50	86.3	86.3	87.2	46	63.0	0	1	292	0.00	29.967 
11:55	86.7	86.7	87.8	46	63.4	0	1	292	0.00	29.967 
12:00	87.0	87.0	87.9	45	63.1	1	3	292	0.00	29.963 
12:05	86.5	86.5	87.2	45	62.6	0	2	292	0.00	29.963 
12:10	87.2	87.2	88.2	45	63.2	0	1	292	0.00	29.963 
12:15	87.8	87.8	89.1	45	63.8	1	3	225	0.00	29.965 
12:20	87.0	87.0	87.6	44	62.4	2	4	248	0.00	29.965 
12:25	86.3	86.3	87.2	46	63.0	1	4	90	0.00	29.965 
12:30	85.9	85.9	86.4	45	62.1	1	3	270	0.00	29.966 
12:35	85.7	85.7	86.4	46	62.5	0	1	270	0.00	29.966 
12:40	86.1	86.1	87.0	46	62.9	1	4	270	0.00	29.966 
12:45	85.3	85.3	85.9	46	62.1	2	4	270	0.00	29.961 
12:50	84.7	84.7	85.4	47	62.2	1	3	270	0.00	29.961 
12:55	84.9	84.9	85.8	48	63.0	2	3	270	0.00	29.961 
13:00	85.9	85.9	86.7	46	62.7	2	4	270	0.00	29.956 
13:05	86.3	86.3	87.0	45	62.4	1	3	292	0.00	29.956 
13:10	85.9	85.9	86.7	46	62.7	1	3	292	0.00	29.956 
13:15	85.7	85.7	86.4	46	62.5	1	4	315	0.00	29.953 
13:20	86.1	86.1	86.7	45	62.2	1	3	248	0.00	29.953 
13:25	86.5	86.5	87.0	44	62.0	1	4	270	0.00	29.953 
13:30	86.7	86.7	87.2	44	62.1	1	4	270	0.00	29.947 
13:35	87.2	87.2	87.6	43	61.9	1	4	270	0.00	29.947 
13:40	87.4	87.4	87.9	43	62.1	1	2	270	0.00	29.947 
13:45	87.6	87.6	88.5	44	63.0	1	4	90	0.00	29.942 
13:50	87.0	87.0	87.6	44	62.4	1	4	315	0.00	29.942 
13:55	85.9	85.9	86.7	46	62.7	1	3	338	0.00	29.942 
14:00	85.5	85.5	86.6	48	63.5	1	3	292	0.00	29.940 
14:05	86.7	86.7	88.3	48	64.6	1	3	270	0.00	29.940 
14:10	87.6	87.6	88.8	45	63.6	1	4	270	0.00	29.940 
14:15	87.6	87.6	89.1	46	64.2	1	4	248	0.00	29.932 
14:20	87.4	87.4	88.2	44	62.8	2	4	270	0.00	29.932 
14:25	87.6	87.6	88.8	45	63.6	1	4	270	0.00	29.932 
14:30	86.5	86.5	87.2	45	62.6	1	4	292	0.00	29.932 
14:35	85.5	85.5	86.4	47	62.9	1	4	292	0.00	29.932 
14:40	84.9	84.9	85.8	48	63.0	1	3	292	0.00	29.932 
14:45	84.5	84.5	85.6	49	63.2	1	3	270	0.00	29.933 
14:50	84.1	84.1	85.0	49	62.8	1	3	270	0.00	29.933 
14:55	84.0	84.0	84.9	49	62.8	0	3	270	0.00	29.933 
15:00	83.8	83.8	84.9	50	63.1	1	3	292	0.00	29.935 
15:05	83.8	83.8	84.9	50	63.1	1	3	292	0.00	29.935 
15:10	83.6	83.6	84.8	51	63.5	1	3	292	0.00	29.935 
15:15	83.6	83.6	84.8	51	63.5	1	3	292	0.00	29.931 
15:20	83.6	83.6	84.6	50	63.0	1	4	292	0.00	29.931 
15:25	83.6	83.6	84.6	50	63.0	1	3	292	0.00	29.931 
15:30	83.6	83.6	84.6	50	63.0	1	3	292	0.00	29.928 
15:35	84.0	84.0	85.3	51	63.9	1	2	292	0.00	29.928 
15:40	84.5	84.5	85.6	49	63.2	1	3	292	0.00	29.928 
15:45	85.1	85.1	86.1	48	63.2	1	3	292	0.00	29.916 
15:50	85.3	85.3	86.4	48	63.4	0	2	292	0.00	29.916 
15:55	85.1	85.1	86.1	48	63.2	0	1	292	0.00	29.916 
16:00	85.1	85.1	86.1	48	63.2	0	2	292	0.00	29.911 
16:05	84.9	84.9	85.8	48	63.0	0	2	292	0.00	29.911 
16:10	84.7	84.7	85.8	49	63.4	0	2	292	0.00	29.911 
16:15	84.7	84.7	85.8	49	63.4	1	5	292	0.00	29.907 
16:20	84.5	84.5	85.6	49	63.2	2	5	270	0.00	29.907 
16:25	84.5	84.5	85.8	50	63.8	2	5	270	0.00	29.907 
16:30	84.1	84.1	86.2	54	65.6	2	9	270	0.00	29.903 
16:35	82.8	82.8	84.4	54	64.4	3	6	270	0.00	29.903 
16:40	82.4	82.4	83.7	53	63.5	3	7	270	0.00	29.903 
16:45	82.8	82.8	84.4	54	64.4	2	5	292	0.00	29.898 
16:50	83.4	83.4	85.8	57	66.5	1	3	270	0.00	29.898 
16:55	83.8	83.8	86.2	56	66.4	1	3	315	0.00	29.898 
17:00	84.0	84.0	86.5	56	66.6	1	3	315	0.00	29.898 
17:05	84.0	84.0	86.0	54	65.5	1	6	315	0.00	29.898 
17:10	83.8	83.8	85.5	53	64.8	1	5	315	0.00	29.898 
17:15	83.8	83.8	85.7	54	65.3	1	3	315	0.00	29.888 
17:20	84.3	84.3	86.2	53	65.3	2	4	270	0.00	29.888 
17:25	84.3	84.3	86.0	52	64.7	3	6	292	0.00	29.888 
17:30	84.1	84.1	86.2	54	65.6	2	4	292	0.00	29.887 
17:35	84.3	84.3	86.0	52	64.7	2	5	292	0.00	29.887 
17:40	84.3	84.3	86.2	53	65.3	1	4	315	0.00	29.887 
17:45	84.5	84.5	86.5	53	65.5	1	3	315	0.00	29.889 
17:50	84.9	84.9	86.6	51	64.7	2	4	292	0.00	29.889 
17:55	85.1	85.1	87.1	52	65.5	2	5	292	0.00	29.889 
18:00	84.9	84.9	86.3	50	64.2	2	4	315	0.00	29.883 
18:05	84.9	84.9	86.3	50	64.2	2	5	270	0.00	29.883 
18:10	84.9	84.9	85.8	48	63.0	3	5	292	0.00	29.883 
18:15	84.7	84.7	85.8	49	63.4	3	5	270	0.00	29.874 
18:20	84.7	84.7	85.8	49	63.4	3	6	292	0.00	29.874 
18:25	84.9	84.9	86.6	51	64.7	1	4	270	0.00	29.874 
18:30	85.1	85.1	86.1	48	63.2	3	5	270	0.00	29.878 
18:35	85.1	85.1	85.9	47	62.6	2	4	292	0.00	29.878 
18:40	84.9	84.9	85.4	46	61.8	3	5	270	0.00	29.878 
18:45	84.5	84.5	85.1	47	62.0	2	4	270	0.00	29.879 
18:50	84.0	84.0	84.7	48	62.2	1	4	270	0.00	29.879 
18:55	83.6	83.6	84.6	50	63.0	0	2	270	0.00	29.879 
19:00	83.4	83.4	84.0	48	61.6	1	3	270	0.00	29.877 
19:05	83.4	83.4	84.2	49	62.2	1	2	315	0.00	29.877 
19:10	83.2	83.2	84.0	49	62.0	0	4	315	0.00	29.877 
19:15	83.2	83.2	84.1	50	62.6	0	2	270	0.00	29.872 
19:20	83.0	83.0	83.9	50	62.4	1	3	270	0.00	29.872 
19:25	82.8	82.8	83.8	51	62.8	1	3	270	0.00	29.872 
19:30	82.6	82.6	83.6	51	62.6	1	3	270	0.00	29.872 
19:35	82.6	82.6	83.8	52	63.2	1	2	270	0.00	29.872 
19:40	82.4	82.4	83.7	53	63.5	0	1	270	0.00	29.872 
19:45	82.2	82.2	83.6	54	63.9	0	2	270	0.00	29.872 
19:50	82.0	82.0	83.4	54	63.7	0	2	270	0.00	29.872 
19:55	81.8	81.8	83.3	55	64.0	0	1	270	0.00	29.872 
20:00	81.6	81.6	83.1	55	63.8	0	2	270	0.00	29.878 
20:05	81.6	81.6	83.4	57	64.9	0	1	270	0.00	29.878 
20:10	81.2	81.2	83.0	58	65.0	0	1	270	0.00	29.878 
20:15	81.1	81.1	83.0	59	65.4	0	1	270	0.00	29.882 
20:20	80.7	80.7	82.5	59	65.0	0	1	270	0.00	29.882 
20:25	80.3	80.3	82.2	60	65.1	0	1	270	0.00	29.882 
20:30	79.9	79.9	81.7	60	64.7	0	1	270	0.00	29.880 
20:35	79.8	79.8	81.7	61	65.1	1	4	270	0.00	29.880 
20:40	79.4	79.4	81.3	62	65.2	0	1	270	0.00	29.880 
20:45	78.8	78.8	80.7	63	65.1	0	1	270	0.00	29.884 
20:50	78.5	78.5	80.3	63	64.8	0	1	270	0.00	29.884 
20:55	78.1	78.1	79.9	63	64.5	0	1	270	0.00	29.884 
21:00	77.9	77.9	79.6	62	63.8	0	1	270	0.00	29.886 
21:05	77.6	77.6	79.4	63	64.0	0	1	270	0.00	29.886 
21:10	77.4	77.4	79.2	64	64.2	0	0	---	0.00	29.886 
21:15	77.2	77.2	79.0	65	64.5	0	0	---	0.00	29.884 
21:20	76.8	76.8	78.6	65	64.1	0	0	---	0.00	29.884 
21:25	76.5	76.5	78.3	66	64.3	0	0	---	0.00	29.884 
21:30	76.3	76.3	78.1	66	64.1	0	0	---	0.00	29.883 
21:35	76.3	76.3	78.1	66	64.1	0	0	---	0.00	29.883 
21:40	76.1	76.1	77.9	67	64.3	0	0	---	0.00	29.883 
21:45	76.0	76.0	77.8	67	64.2	0	0	---	0.00	29.883 
21:50	75.8	75.8	77.6	68	64.5	0	0	---	0.00	29.883 
21:55	75.6	75.6	77.4	68	64.3	0	0	---	0.00	29.883 
22:00	75.3	75.3	77.0	69	64.4	0	0	---	0.00	29.888 
22:05	75.1	75.1	76.9	68	63.8	0	0	---	0.00	29.888 
22:10	74.9	74.9	74.9	69	64.0	0	0	---	0.00	29.888 
22:15	74.7	74.7	74.7	69	63.8	0	0	---	0.00	29.881 
22:20	74.6	74.6	74.6	68	63.3	0	0	---	0.00	29.881 
22:25	74.4	74.4	74.4	68	63.1	0	0	---	0.00	29.881 
22:30	74.2	74.2	74.2	67	62.5	0	0	---	0.00	29.887 
22:35	74.2	74.2	74.2	67	62.5	0	0	---	0.00	29.887 
22:40	74.0	74.0	74.0	67	62.3	0	0	---	0.00	29.887 
22:45	73.9	73.9	73.9	67	62.2	0	0	---	0.00	29.884 
22:50	73.5	73.5	73.5	67	61.9	0	0	---	0.00	29.884 
22:55	73.3	73.3	73.3	68	62.1	0	0	---	0.00	29.884 
23:00	73.0	73.0	73.0	69	62.2	0	0	---	0.00	29.883 
23:05	72.8	72.8	72.8	69	62.0	0	0	---	0.00	29.883 
23:10	72.5	72.5	72.5	70	62.1	0	0	---	0.00	29.883 
23:15	72.1	72.1	72.1	71	62.2	0	0	---	0.00	29.878 
23:20	72.0	72.0	72.0	71	62.1	0	0	---	0.00	29.878 
23:25	71.6	71.6	71.6	72	62.1	0	0	---	0.00	29.878 
23:30	71.5	71.5	71.5	74	62.8	0	0	---	0.00	29.877 
23:35	71.1	71.1	71.1	74	62.4	0	0	---	0.00	29.877 
23:40	70.9	70.9	70.9	75	62.6	0	0	---	0.00	29.877 
23:45	70.8	70.8	70.8	76	62.8	0	0	---	0.00	29.888 
23:50	70.6	70.6	70.6	76	62.7	0	0	---	0.00	29.888 
23:55	70.4	70.4	70.4	77	62.8	0	0	---	0.00	29.888 

CoCoRaHS
IN-AL-39
A2 Web Hosting
Creative Commons License
GoDaddy
search engine by freefind advanced

loaded 2018-11-13 18:14:47 • last modified 2010-11-18 10:43:29
Privacy PolicyDisclaimer
• wx.awcolley.com is powered by PmWiki v.2002016 •
• all content (unless otherwise noted) © 2018 A W Colley